createdAt,value
2024-03-07T00:00:34.165Z,137.20
2024-03-07T00:01:36.291Z,130.68
2024-03-07T00:02:41.037Z,142.95
2024-03-07T00:03:43.211Z,181.20
2024-03-07T00:04:48.014Z,197.07
2024-03-07T00:05:50.304Z,172.77
2024-03-07T00:06:52.575Z,205.25
2024-03-07T00:07:59.627Z,138.10
2024-03-07T00:09:01.867Z,162.40
2024-03-07T00:10:10.923Z,146.05
2024-03-07T00:11:13.267Z,176.18
2024-03-07T00:12:18.203Z,187.60
2024-03-07T00:13:22.525Z,144.93
2024-03-07T00:14:28.824Z,185.15
2024-03-07T00:15:31.530Z,167.18
2024-03-07T00:16:36.642Z,173.45
2024-03-07T00:17:42.368Z,185.05
2024-03-07T00:18:47.361Z,197.60
2024-03-07T00:19:49.975Z,204.77
2024-03-07T00:20:56.131Z,187.43
2024-03-07T00:21:58.786Z,135.52
2024-03-07T00:23:04.261Z,135.55
2024-03-07T00:24:06.914Z,144.63
2024-03-07T00:25:16.215Z,137.10
2024-03-07T00:26:18.429Z,117.40
2024-03-07T00:27:22.140Z,130.10
2024-03-07T00:28:30.514Z,142.70
2024-03-07T00:29:33.097Z,144.57
2024-03-07T00:30:38.964Z,155.30
2024-03-07T00:31:41.081Z,252.98
2024-03-07T00:32:46.193Z,176.93
2024-03-07T00:33:59.764Z,169.88
2024-03-07T00:35:13.100Z,135.80
2024-03-07T00:36:15.270Z,132.45
2024-03-07T00:37:20.682Z,130.35
2024-03-07T00:38:22.892Z,125.72
2024-03-07T00:39:27.983Z,170.13
2024-03-07T00:40:33.860Z,129.18
2024-03-07T00:41:38.647Z,146.43
2024-03-07T00:42:40.778Z,164.55
2024-03-07T00:43:45.947Z,163.40
2024-03-07T00:44:48.156Z,213.52
2024-03-07T00:45:53.522Z,198.50
2024-03-07T00:46:55.660Z,209.15
2024-03-07T00:48:00.526Z,163.38
2024-03-07T00:49:02.849Z,168.73
2024-03-07T00:50:10.234Z,187.23
2024-03-07T00:51:12.563Z,138.52
2024-03-07T00:52:17.292Z,154.93
2024-03-07T00:53:19.444Z,150.45
2024-03-07T00:54:21.948Z,146.00
2024-03-07T00:55:26.772Z,152.57
2024-03-07T00:56:31.489Z,175.05
2024-03-07T00:57:36.227Z,133.88
2024-03-07T00:58:38.381Z,123.72
2024-03-07T00:59:43.227Z,168.40
2024-03-07T01:00:45.404Z,190.73
2024-03-07T01:01:50.404Z,208.73
2024-03-07T01:02:55.319Z,249.52
2024-03-07T01:03:57.711Z,140.02
2024-03-07T01:05:02.891Z,145.63
2024-03-07T01:06:05.520Z,226.00
2024-03-07T01:07:10.203Z,142.98
2024-03-07T01:08:15.462Z,159.15
2024-03-07T01:09:20.397Z,208.43
2024-03-07T01:10:22.584Z,110.13
2024-03-07T01:11:27.507Z,118.05
2024-03-07T01:12:35.655Z,188.88
2024-03-07T01:13:41.132Z,124.32
2024-03-07T01:14:43.270Z,195.02
2024-03-07T01:15:48.159Z,241.48
2024-03-07T01:16:50.477Z,181.75
2024-03-07T01:17:55.550Z,198.13
2024-03-07T01:18:57.707Z,165.27
2024-03-07T01:20:04.377Z,126.80
2024-03-07T01:21:07.448Z,192.90
2024-03-07T01:22:12.190Z,144.38
2024-03-07T01:23:14.307Z,180.60
2024-03-07T01:24:21.877Z,133.50
2024-03-07T01:25:24.449Z,139.38
2024-03-07T01:26:29.175Z,171.75
2024-03-07T01:27:33.984Z,133.55
2024-03-07T01:28:39.172Z,165.18
2024-03-07T01:29:42.729Z,188.48
2024-03-07T01:30:47.952Z,203.25
2024-03-07T01:31:50.472Z,218.10
2024-03-07T01:32:55.246Z,190.73
2024-03-07T01:33:57.546Z,212.05
2024-03-07T01:35:02.579Z,138.93
2024-03-07T01:36:06.421Z,145.10
2024-03-07T01:37:11.548Z,122.80
2024-03-07T01:38:14.819Z,147.77
2024-03-07T01:39:20.831Z,138.73
2024-03-07T01:40:23.229Z,160.73
2024-03-07T01:41:28.018Z,132.98
2024-03-07T01:42:30.244Z,152.00
2024-03-07T01:43:37.992Z,274.27
2024-03-07T01:44:42.011Z,239.32
2024-03-07T01:45:46.845Z,234.05
2024-03-07T01:46:51.251Z,237.13
2024-03-07T01:47:56.959Z,233.02
2024-03-07T01:49:00.162Z,222.05
2024-03-07T01:50:05.067Z,170.07
2024-03-07T01:51:07.778Z,216.75
2024-03-07T01:52:13.705Z,202.43
2024-03-07T01:53:15.945Z,292.00
2024-03-07T01:54:20.693Z,206.40
2024-03-07T01:55:23.763Z,200.82
2024-03-07T01:56:25.989Z,164.77
2024-03-07T01:57:30.962Z,206.68
2024-03-07T01:58:38.018Z,218.43
2024-03-07T01:59:43.808Z,155.70
2024-03-07T02:00:46.147Z,173.68
2024-03-07T02:01:51.097Z,215.23
2024-03-07T02:02:54.609Z,208.30
2024-03-07T02:03:59.585Z,161.00
2024-03-07T02:05:01.860Z,130.38
2024-03-07T02:06:07.268Z,151.20
2024-03-07T02:07:12.680Z,131.85
2024-03-07T02:08:18.130Z,138.63
2024-03-07T02:09:20.911Z,107.95
2024-03-07T02:10:25.628Z,120.55
2024-03-07T02:11:27.907Z,139.00
2024-03-07T02:12:33.616Z,132.25
2024-03-07T02:13:38.577Z,115.47
2024-03-07T02:14:43.307Z,156.35
2024-03-07T02:15:45.623Z,150.98
2024-03-07T02:16:50.428Z,171.90
2024-03-07T02:17:52.726Z,171.20
2024-03-07T02:18:58.809Z,196.23
2024-03-07T02:20:01.158Z,228.30
2024-03-07T02:21:13.044Z,145.10
2024-03-07T02:22:15.593Z,142.98
2024-03-07T02:23:20.388Z,217.50
2024-03-07T02:24:22.778Z,130.80
2024-03-07T02:25:28.257Z,218.63
2024-03-07T02:26:30.458Z,129.27
2024-03-07T02:27:35.264Z,131.40
2024-03-07T02:28:37.452Z,141.27
2024-03-07T02:29:42.202Z,121.63
2024-03-07T02:30:47.060Z,230.50
2024-03-07T02:31:53.030Z,179.93
2024-03-07T02:32:56.928Z,204.70
2024-03-07T02:34:02.483Z,233.25
2024-03-07T02:35:05.412Z,134.18
2024-03-07T02:36:12.908Z,142.63
2024-03-07T02:37:15.098Z,146.60
2024-03-07T02:38:20.637Z,178.40
2024-03-07T02:39:23.055Z,171.35
2024-03-07T02:40:27.855Z,239.80
2024-03-07T02:41:30.005Z,214.05
2024-03-07T02:42:34.995Z,189.18
2024-03-07T02:43:39.632Z,187.43
2024-03-07T02:44:44.381Z,171.52
2024-03-07T02:45:46.652Z,162.70
2024-03-07T02:46:51.509Z,211.20
2024-03-07T02:47:55.700Z,209.13
2024-03-07T02:49:00.713Z,200.30
2024-03-07T02:50:02.924Z,201.23
2024-03-07T02:51:08.176Z,164.23
2024-03-07T02:52:12.893Z,158.82
2024-03-07T02:53:17.650Z,173.68
2024-03-07T02:54:21.813Z,145.57
2024-03-07T02:55:26.539Z,152.50
2024-03-07T02:56:28.831Z,121.90
2024-03-07T02:57:33.652Z,126.82
2024-03-07T02:58:35.781Z,132.95
2024-03-07T02:59:40.531Z,146.73
2024-03-07T03:00:42.662Z,100.00
2024-03-07T03:01:47.578Z,130.85
2024-03-07T03:02:50.681Z,172.93
2024-03-07T03:03:55.721Z,166.30
2024-03-07T03:04:57.947Z,161.25
2024-03-07T03:06:03.843Z,160.73
2024-03-07T03:07:06.609Z,134.80
2024-03-07T03:08:15.425Z,122.10
2024-03-07T03:09:19.119Z,118.72
2024-03-07T03:10:27.990Z,111.70
2024-03-07T03:11:31.269Z,163.75
2024-03-07T03:12:38.322Z,235.77
2024-03-07T03:13:40.869Z,129.57
2024-03-07T03:14:47.207Z,149.75
2024-03-07T03:15:49.363Z,147.85
2024-03-07T03:16:54.029Z,168.07
2024-03-07T03:17:56.297Z,171.52
2024-03-07T03:18:59.075Z,166.30
2024-03-07T03:20:04.563Z,175.15
2024-03-07T03:21:06.776Z,148.63
2024-03-07T03:22:11.532Z,183.65
2024-03-07T03:23:20.973Z,138.23
2024-03-07T03:24:26.942Z,132.50
2024-03-07T03:25:29.074Z,166.98
2024-03-07T03:26:34.099Z,128.50
2024-03-07T03:27:36.261Z,151.15
2024-03-07T03:28:42.728Z,129.18
2024-03-07T03:29:46.403Z,151.18
2024-03-07T03:30:49.778Z,226.88
2024-03-07T03:31:54.701Z,164.07
2024-03-07T03:32:56.970Z,187.73
2024-03-07T03:33:59.323Z,195.63
2024-03-07T03:35:04.440Z,202.43
2024-03-07T03:36:06.887Z,169.23
2024-03-07T03:37:12.722Z,153.65
2024-03-07T03:38:19.456Z,152.90
2024-03-07T03:39:24.811Z,147.93
2024-03-07T03:40:27.384Z,341.52
2024-03-07T03:41:33.368Z,151.60
2024-03-07T03:42:37.378Z,167.57
2024-03-07T03:43:42.415Z,145.10
2024-03-07T03:44:44.567Z,207.38
2024-03-07T03:45:49.454Z,114.38
2024-03-07T03:46:51.666Z,148.02
2024-03-07T03:47:57.688Z,151.18
2024-03-07T03:48:59.931Z,120.18
2024-03-07T03:50:04.688Z,182.00
2024-03-07T03:51:08.834Z,169.82
2024-03-07T03:52:13.637Z,95.88
2024-03-07T03:53:19.335Z,172.43
2024-03-07T03:54:24.128Z,112.60
2024-03-07T03:55:27.657Z,102.43
2024-03-07T03:56:33.462Z,160.73
2024-03-07T03:57:35.691Z,117.75
2024-03-07T03:58:40.420Z,104.20
2024-03-07T03:59:45.983Z,151.82
2024-03-07T04:00:50.800Z,80.85
2024-03-07T04:01:53.021Z,133.75
2024-03-07T04:02:57.925Z,151.00
2024-03-07T04:04:00.092Z,121.05
2024-03-07T04:05:05.043Z,139.45
2024-03-07T04:06:08.424Z,133.20
2024-03-07T04:07:13.451Z,106.35
2024-03-07T04:08:18.775Z,91.55
2024-03-07T04:09:24.824Z,122.55
2024-03-07T04:10:26.975Z,102.07
2024-03-07T04:11:31.766Z,94.85
2024-03-07T04:12:34.267Z,110.93
2024-03-07T04:13:39.686Z,94.05
2024-03-07T04:14:42.497Z,101.88
2024-03-07T04:15:47.221Z,95.85
2024-03-07T04:16:49.425Z,119.13
2024-03-07T04:17:54.434Z,108.35
2024-03-07T04:18:59.103Z,132.82
2024-03-07T04:20:04.290Z,158.65
2024-03-07T04:21:06.576Z,131.32
2024-03-07T04:22:12.215Z,136.57
2024-03-07T04:23:14.696Z,139.55
2024-03-07T04:24:22.084Z,102.55
2024-03-07T04:25:26.263Z,83.85
2024-03-07T04:26:31.063Z,132.85
2024-03-07T04:27:33.943Z,117.25
2024-03-07T04:28:38.787Z,107.72
2024-03-07T04:29:40.960Z,100.15
2024-03-07T04:30:46.624Z,100.20
2024-03-07T04:31:49.184Z,97.75
2024-03-07T04:32:53.971Z,101.15
2024-03-07T04:33:56.217Z,135.88
2024-03-07T04:35:02.098Z,130.07
2024-03-07T04:36:05.251Z,131.40
2024-03-07T04:37:10.632Z,119.55
2024-03-07T04:38:16.626Z,111.18
2024-03-07T04:39:33.678Z,103.70
2024-03-07T04:40:36.091Z,149.27
2024-03-07T04:41:41.203Z,83.10
2024-03-07T04:42:43.999Z,69.97
2024-03-07T04:43:48.744Z,82.38
2024-03-07T04:44:50.981Z,83.55
2024-03-07T04:45:53.218Z,87.78
2024-03-07T04:46:59.217Z,103.07
2024-03-07T04:48:01.673Z,110.72
2024-03-07T04:49:06.362Z,124.55
2024-03-07T04:50:12.054Z,114.03
2024-03-07T04:51:16.861Z,91.07
2024-03-07T04:52:18.931Z,92.57
2024-03-07T04:53:23.724Z,108.65
2024-03-07T04:54:30.058Z,86.88
2024-03-07T04:55:35.024Z,94.57
2024-03-07T04:56:37.159Z,118.63
2024-03-07T04:57:42.979Z,90.55
2024-03-07T04:58:46.089Z,91.35
2024-03-07T04:59:50.902Z,87.22
2024-03-07T05:00:53.171Z,93.15
2024-03-07T05:01:59.008Z,89.38
2024-03-07T05:03:01.178Z,147.05
2024-03-07T05:04:04.493Z,133.20
2024-03-07T05:05:09.568Z,117.47
2024-03-07T05:06:11.696Z,125.35
2024-03-07T05:07:16.466Z,109.70
2024-03-07T05:08:18.623Z,90.00
2024-03-07T05:09:27.616Z,97.30
2024-03-07T05:10:32.810Z,110.45
2024-03-07T05:11:38.567Z,96.90
2024-03-07T05:12:40.725Z,129.82
2024-03-07T05:13:45.560Z,83.60
2024-03-07T05:14:47.791Z,98.15
2024-03-07T05:15:52.017Z,97.32
2024-03-07T05:17:06.591Z,91.32
2024-03-07T05:18:09.518Z,144.90
2024-03-07T05:19:15.374Z,135.68
2024-03-07T05:20:17.655Z,113.53
2024-03-07T05:21:39.597Z,99.28
2024-03-07T05:23:47.137Z,79.35
2024-03-07T05:24:51.402Z,97.55
2024-03-07T05:25:58.777Z,100.80
2024-03-07T05:27:01.229Z,114.72
2024-03-07T05:28:06.685Z,132.45
2024-03-07T05:29:10.676Z,111.97
2024-03-07T05:30:17.104Z,109.25
2024-03-07T05:31:22.202Z,80.72
2024-03-07T05:32:26.906Z,83.45
2024-03-07T05:33:32.010Z,88.72
2024-03-07T05:34:35.286Z,88.68
2024-03-07T05:35:45.010Z,89.97
2024-03-07T05:36:48.004Z,86.63
2024-03-07T05:37:53.685Z,107.00
2024-03-07T05:38:55.934Z,86.15
2024-03-07T05:40:01.315Z,107.93
2024-03-07T05:41:06.237Z,123.55
2024-03-07T05:42:15.329Z,122.72
2024-03-07T05:43:17.603Z,114.00
2024-03-07T05:44:23.809Z,114.25
2024-03-07T05:45:25.976Z,103.97
2024-03-07T05:46:30.723Z,88.78
2024-03-07T05:47:33.116Z,111.70
2024-03-07T05:48:37.999Z,107.65
2024-03-07T05:49:40.286Z,119.07
2024-03-07T05:50:47.356Z,132.43
2024-03-07T05:51:52.223Z,129.90
2024-03-07T05:52:56.965Z,110.07
2024-03-07T05:53:59.257Z,139.60
2024-03-07T05:55:04.023Z,135.60
2024-03-07T05:56:09.474Z,158.90
2024-03-07T05:57:14.568Z,127.30
2024-03-07T05:58:17.320Z,121.80
2024-03-07T05:59:19.564Z,145.70
2024-03-07T06:00:29.221Z,132.43
2024-03-07T06:01:34.154Z,98.25
2024-03-07T06:02:38.895Z,118.32
2024-03-07T06:03:41.565Z,119.40
2024-03-07T06:04:47.191Z,104.20
2024-03-07T06:05:49.812Z,110.03
2024-03-07T06:06:55.308Z,129.85
2024-03-07T06:07:57.991Z,104.68
2024-03-07T06:09:00.340Z,112.55
2024-03-07T06:10:07.801Z,128.80
2024-03-07T06:11:14.609Z,120.28
2024-03-07T06:12:27.138Z,108.78
2024-03-07T06:13:30.308Z,144.90
2024-03-07T06:14:35.202Z,129.20
2024-03-07T06:15:39.540Z,107.68
2024-03-07T06:16:46.475Z,106.22
2024-03-07T06:17:48.670Z,139.40
2024-03-07T06:18:53.477Z,102.38
2024-03-07T06:19:55.613Z,106.95
2024-03-07T06:20:57.790Z,120.28
2024-03-07T06:22:02.550Z,111.22
2024-03-07T06:23:06.575Z,135.52
2024-03-07T06:24:13.444Z,147.85
2024-03-07T06:25:20.490Z,122.22
2024-03-07T06:26:38.470Z,114.70
2024-03-07T06:27:49.899Z,128.70
2024-03-07T06:28:52.021Z,118.75
2024-03-07T06:29:57.029Z,117.07
2024-03-07T06:30:59.837Z,117.43
2024-03-07T06:32:07.774Z,173.43
2024-03-07T06:33:10.397Z,123.15
2024-03-07T06:34:15.292Z,119.00
2024-03-07T06:35:17.631Z,143.75
2024-03-07T06:36:23.226Z,104.10
2024-03-07T06:37:25.348Z,105.38
2024-03-07T06:38:31.088Z,158.23
2024-03-07T06:39:33.258Z,128.48
2024-03-07T06:40:38.497Z,132.93
2024-03-07T06:41:43.720Z,119.60
2024-03-07T06:42:48.494Z,119.65
2024-03-07T06:43:51.212Z,110.10
2024-03-07T06:44:56.008Z,166.15
2024-03-07T06:45:58.270Z,110.53
2024-03-07T06:47:04.354Z,101.45
2024-03-07T06:48:08.425Z,162.88
2024-03-07T06:49:13.294Z,144.88
2024-03-07T06:50:27.451Z,143.98
2024-03-07T06:51:37.831Z,116.63
2024-03-07T06:52:39.978Z,133.15
2024-03-07T06:53:44.796Z,107.88
2024-03-07T06:54:47.116Z,138.85
2024-03-07T06:55:50.336Z,154.18
2024-03-07T06:56:57.833Z,117.13
2024-03-07T06:58:00.016Z,137.88
2024-03-07T06:59:06.324Z,173.02
2024-03-07T07:00:12.426Z,155.30
2024-03-07T07:01:17.721Z,159.35
2024-03-07T07:02:20.039Z,162.38
2024-03-07T07:03:25.285Z,134.48
2024-03-07T07:04:40.096Z,142.25
2024-03-07T07:05:46.097Z,111.07
2024-03-07T07:06:48.260Z,112.03
2024-03-07T07:07:53.206Z,115.10
2024-03-07T07:08:55.356Z,103.95
2024-03-07T07:10:00.241Z,117.50
2024-03-07T07:11:02.401Z,128.50
2024-03-07T07:12:10.537Z,132.05
2024-03-07T07:13:14.512Z,133.85
2024-03-07T07:14:22.081Z,134.20
2024-03-07T07:15:24.321Z,135.52
2024-03-07T07:16:31.191Z,119.40
2024-03-07T07:17:33.549Z,119.07
2024-03-07T07:18:39.944Z,114.43
2024-03-07T07:19:42.264Z,124.95
2024-03-07T07:20:50.593Z,116.38
2024-03-07T07:21:54.957Z,133.95
2024-03-07T07:23:02.113Z,108.70
2024-03-07T07:24:04.945Z,140.20
2024-03-07T07:25:14.566Z,159.27
2024-03-07T07:26:16.840Z,143.90
2024-03-07T07:27:22.857Z,166.15
2024-03-07T07:28:28.306Z,122.88
2024-03-07T07:29:30.875Z,144.48
2024-03-07T07:30:35.767Z,159.43
2024-03-07T07:31:37.918Z,162.68
2024-03-07T07:32:44.299Z,187.50
2024-03-07T07:33:47.274Z,218.93
2024-03-07T07:34:52.767Z,201.27
2024-03-07T07:35:54.914Z,196.02
2024-03-07T07:36:59.662Z,153.88
2024-03-07T07:38:03.275Z,165.85
2024-03-07T07:39:08.011Z,261.38
2024-03-07T07:40:14.405Z,195.05
2024-03-07T07:41:19.102Z,161.75
2024-03-07T07:42:23.804Z,201.63
2024-03-07T07:43:41.529Z,131.32
2024-03-07T07:44:45.527Z,131.32
2024-03-07T07:45:50.746Z,129.05
2024-03-07T07:46:52.871Z,130.95
2024-03-07T07:47:57.900Z,128.00
2024-03-07T07:49:00.121Z,140.90
2024-03-07T07:50:08.353Z,132.93
2024-03-07T07:51:10.595Z,161.93
2024-03-07T07:52:17.469Z,135.95
2024-03-07T07:53:19.712Z,172.43
2024-03-07T07:54:26.003Z,145.45
2024-03-07T07:55:29.069Z,137.27
2024-03-07T07:56:33.921Z,166.93
2024-03-07T07:57:39.997Z,138.57
2024-03-07T07:58:45.424Z,132.20
2024-03-07T07:59:47.596Z,152.35
2024-03-07T08:00:52.368Z,118.47
2024-03-07T08:01:56.893Z,120.78
2024-03-07T08:03:03.313Z,145.18
2024-03-07T08:04:05.810Z,151.60
2024-03-07T08:05:10.288Z,146.35
2024-03-07T08:06:15.345Z,181.25
2024-03-07T08:07:17.684Z,206.77
2024-03-07T08:08:23.434Z,134.20
2024-03-07T08:09:25.954Z,132.18
2024-03-07T08:10:32.446Z,155.40
2024-03-07T08:11:34.706Z,139.85
2024-03-07T08:12:40.213Z,131.23
2024-03-07T08:13:45.207Z,147.77
2024-03-07T08:14:47.474Z,140.25
2024-03-07T08:15:55.223Z,145.75
2024-03-07T08:16:57.666Z,145.27
2024-03-07T08:18:03.491Z,142.93
2024-03-07T08:19:06.059Z,140.60
2024-03-07T08:20:12.789Z,155.60
2024-03-07T08:21:17.482Z,173.13
2024-03-07T08:22:20.740Z,169.93
2024-03-07T08:23:26.772Z,208.27
2024-03-07T08:24:29.490Z,150.07
2024-03-07T08:25:34.283Z,173.55
2024-03-07T08:26:36.449Z,161.27
2024-03-07T08:27:46.048Z,179.02
2024-03-07T08:28:48.306Z,176.30
2024-03-07T08:29:53.137Z,173.80
2024-03-07T08:30:56.105Z,241.50
2024-03-07T08:32:00.915Z,186.90
2024-03-07T08:33:04.814Z,227.50
2024-03-07T08:34:09.662Z,210.88
2024-03-07T08:35:12.946Z,193.50
2024-03-07T08:36:17.737Z,309.92
2024-03-07T08:37:20.068Z,347.75
2024-03-07T08:38:24.901Z,263.60
2024-03-07T08:39:27.411Z,299.15
2024-03-07T08:40:34.502Z,267.00
2024-03-07T08:41:42.294Z,212.80
2024-03-07T08:42:51.510Z,218.80
2024-03-07T08:43:53.723Z,241.13
2024-03-07T08:44:55.980Z,233.00
2024-03-07T08:46:01.092Z,186.05
2024-03-07T08:47:03.267Z,170.98
2024-03-07T08:48:10.826Z,183.75
2024-03-07T08:49:15.878Z,331.92
2024-03-07T08:50:21.857Z,236.43
2024-03-07T08:51:24.440Z,216.50
2024-03-07T08:52:26.727Z,198.98
2024-03-07T08:53:31.673Z,216.45
2024-03-07T08:54:34.885Z,407.27
2024-03-07T08:55:39.639Z,180.85
2024-03-07T08:56:42.588Z,194.35
2024-03-07T08:57:50.626Z,271.38
2024-03-07T08:58:52.901Z,194.88
2024-03-07T08:59:57.939Z,670.38
2024-03-07T09:01:00.664Z,667.17
2024-03-07T09:02:06.886Z,797.97
2024-03-07T09:03:12.586Z,615.38
2024-03-07T09:04:19.241Z,177.93
2024-03-07T09:05:23.744Z,194.82
2024-03-07T09:06:29.127Z,130.57
2024-03-07T09:07:31.348Z,167.30
2024-03-07T09:08:36.107Z,164.02
2024-03-07T09:09:38.284Z,162.55
2024-03-07T09:10:43.684Z,177.60
2024-03-07T09:11:46.158Z,233.45
2024-03-07T09:12:53.440Z,203.85
2024-03-07T09:13:58.588Z,203.05
2024-03-07T09:15:03.777Z,176.52
2024-03-07T09:16:08.964Z,338.58
2024-03-07T09:17:11.087Z,202.60
2024-03-07T09:18:16.193Z,231.25
2024-03-07T09:19:21.566Z,220.68
2024-03-07T09:20:26.448Z,219.45
2024-03-07T09:21:28.611Z,135.80
2024-03-07T09:22:34.037Z,210.82
2024-03-07T09:23:36.328Z,126.45
2024-03-07T09:24:41.292Z,153.60
2024-03-07T09:25:44.271Z,195.65
2024-03-07T09:26:46.832Z,144.18
2024-03-07T09:27:55.940Z,160.48
2024-03-07T09:28:58.484Z,127.40
2024-03-07T09:30:03.325Z,123.32
2024-03-07T09:31:05.550Z,173.73
2024-03-07T09:32:10.795Z,138.13
2024-03-07T09:33:13.359Z,175.40
2024-03-07T09:34:18.239Z,199.52
2024-03-07T09:35:20.763Z,164.50
2024-03-07T09:36:25.568Z,168.30
2024-03-07T09:37:27.965Z,170.57
2024-03-07T09:38:32.752Z,135.35
2024-03-07T09:39:36.321Z,138.10
2024-03-07T09:40:38.970Z,133.18
2024-03-07T09:41:43.744Z,115.40
2024-03-07T09:42:49.796Z,117.30
2024-03-07T09:44:00.108Z,129.13
2024-03-07T09:45:04.566Z,125.65
2024-03-07T09:46:11.384Z,154.30
2024-03-07T09:47:15.315Z,220.77
2024-03-07T09:48:21.165Z,172.23
2024-03-07T09:49:24.109Z,133.73
2024-03-07T09:50:29.315Z,141.57
2024-03-07T09:51:34.719Z,113.72
2024-03-07T09:52:37.534Z,147.88
2024-03-07T09:53:45.070Z,128.38
2024-03-07T09:54:47.339Z,153.18
2024-03-07T09:55:52.256Z,145.32
2024-03-07T09:56:55.945Z,113.20
2024-03-07T09:58:04.874Z,101.00
2024-03-07T09:59:14.628Z,123.40
2024-03-07T10:00:28.401Z,130.70
2024-03-07T10:01:35.291Z,99.63
2024-03-07T10:02:43.536Z,139.65
2024-03-07T10:03:48.541Z,143.35
2024-03-07T10:04:55.293Z,115.47
2024-03-07T10:05:57.551Z,118.60
2024-03-07T10:07:02.947Z,144.93
2024-03-07T10:08:07.002Z,130.50
2024-03-07T10:09:14.500Z,119.03
2024-03-07T10:10:17.403Z,165.70
2024-03-07T10:11:22.308Z,153.77
2024-03-07T10:12:24.684Z,170.02
2024-03-07T10:13:32.918Z,162.30
2024-03-07T10:14:38.755Z,166.90
2024-03-07T10:15:44.656Z,125.45
2024-03-07T10:16:48.033Z,117.25
2024-03-07T10:17:52.937Z,167.13
2024-03-07T10:18:55.235Z,120.25
2024-03-07T10:20:02.343Z,109.50
2024-03-07T10:21:05.541Z,114.78
2024-03-07T10:22:10.572Z,129.77
2024-03-07T10:23:12.924Z,185.88
2024-03-07T10:24:19.167Z,169.38
2024-03-07T10:25:23.623Z,172.18
2024-03-07T10:26:28.454Z,202.80
2024-03-07T10:27:31.053Z,140.15
2024-03-07T10:28:36.238Z,179.48
2024-03-07T10:29:41.174Z,232.52
2024-03-07T10:30:46.877Z,172.85
2024-03-07T10:31:57.468Z,126.18
2024-03-07T10:33:08.810Z,180.80
2024-03-07T10:34:11.079Z,174.30
2024-03-07T10:35:15.532Z,138.07
2024-03-07T10:36:20.675Z,191.82
2024-03-07T10:37:22.763Z,169.80
2024-03-07T10:38:27.546Z,204.20
2024-03-07T10:39:29.680Z,139.23
2024-03-07T10:40:34.446Z,120.90
2024-03-07T10:41:38.147Z,164.23
2024-03-07T10:42:46.914Z,117.60
2024-03-07T10:43:54.812Z,138.70
2024-03-07T10:45:12.165Z,163.45
2024-03-07T10:46:15.857Z,187.63
2024-03-07T10:47:22.540Z,179.43
2024-03-07T10:48:31.079Z,200.93
2024-03-07T10:49:40.727Z,142.93
2024-03-07T10:50:56.781Z,193.73
2024-03-07T10:52:07.711Z,124.28
2024-03-07T10:53:17.144Z,132.27
2024-03-07T10:54:32.062Z,180.50
2024-03-07T10:55:40.399Z,148.77
2024-03-07T10:56:59.281Z,163.68
2024-03-07T10:58:07.705Z,182.50
2024-03-07T10:59:20.812Z,156.80
2024-03-07T11:00:31.760Z,199.57
2024-03-07T11:01:40.291Z,151.15
2024-03-07T11:02:52.357Z,140.60
2024-03-07T11:03:58.787Z,162.73
2024-03-07T11:05:01.505Z,152.38
2024-03-07T11:06:08.276Z,149.32
2024-03-07T11:07:12.372Z,133.10
2024-03-07T11:08:18.218Z,168.02
2024-03-07T11:09:24.733Z,230.15
2024-03-07T11:10:30.728Z,240.50
2024-03-07T11:11:33.905Z,103.18
2024-03-07T11:12:40.721Z,180.73
2024-03-07T11:13:43.551Z,132.57
2024-03-07T11:14:47.847Z,169.10
2024-03-07T11:15:58.916Z,144.95
2024-03-07T11:17:02.238Z,147.63
2024-03-07T11:18:09.642Z,150.95
2024-03-07T11:19:27.644Z,135.88
2024-03-07T11:20:39.279Z,178.98
2024-03-07T11:22:47.226Z,111.80
2024-03-07T11:23:52.052Z,141.25
2024-03-07T11:25:02.055Z,129.43
2024-03-07T11:26:09.213Z,147.50
2024-03-07T11:27:15.250Z,179.32
2024-03-07T11:28:21.777Z,155.02
2024-03-07T11:29:55.097Z,223.82
2024-03-07T11:31:11.635Z,151.90
2024-03-07T11:32:18.049Z,116.03
2024-03-07T11:33:22.113Z,179.45
2024-03-07T11:34:33.952Z,163.40
2024-03-07T11:35:37.250Z,151.18
2024-03-07T11:36:46.533Z,135.07
2024-03-07T11:37:53.333Z,120.53
2024-03-07T11:38:55.511Z,138.85
2024-03-07T11:40:09.299Z,136.50
2024-03-07T11:41:14.863Z,141.50
2024-03-07T11:42:31.831Z,158.23
2024-03-07T11:43:34.420Z,130.82
2024-03-07T11:44:41.328Z,132.05
2024-03-07T11:45:46.856Z,126.30
2024-03-07T11:46:54.778Z,131.85
2024-03-07T11:48:02.144Z,107.53
2024-03-07T11:49:11.448Z,160.85
2024-03-07T11:50:14.013Z,157.77
2024-03-07T11:51:26.595Z,143.57
2024-03-07T11:52:29.321Z,200.30
2024-03-07T11:53:36.662Z,173.73
2024-03-07T11:54:41.499Z,120.00
2024-03-07T11:55:47.635Z,138.68
2024-03-07T11:56:52.950Z,132.38
2024-03-07T11:57:58.163Z,172.70
2024-03-07T11:59:01.065Z,166.70
2024-03-07T12:00:12.165Z,174.70
2024-03-07T12:01:15.425Z,199.63
2024-03-07T12:02:25.192Z,216.57
2024-03-07T12:03:28.912Z,184.40
2024-03-07T12:04:36.161Z,190.43
2024-03-07T12:05:40.754Z,121.38
2024-03-07T12:06:54.579Z,145.48
2024-03-07T12:07:58.439Z,129.93
2024-03-07T12:09:04.067Z,132.13
2024-03-07T12:10:08.197Z,140.77
2024-03-07T12:11:17.226Z,143.80
2024-03-07T12:12:19.615Z,176.45
2024-03-07T12:13:26.242Z,199.35
2024-03-07T12:14:29.143Z,204.73
2024-03-07T12:15:34.905Z,179.65
2024-03-07T12:16:37.235Z,140.30
2024-03-07T12:17:42.868Z,168.73
2024-03-07T12:18:48.457Z,154.13
2024-03-07T12:19:52.578Z,137.35
2024-03-07T12:21:00.309Z,142.77
2024-03-07T12:22:03.428Z,146.90
2024-03-07T12:23:09.906Z,119.07
2024-03-07T12:24:16.535Z,155.13
2024-03-07T12:25:23.121Z,151.10
2024-03-07T12:26:31.466Z,214.48
2024-03-07T12:27:34.447Z,262.77
2024-03-07T12:28:40.434Z,178.25
2024-03-07T12:29:43.844Z,156.45
2024-03-07T12:30:53.750Z,133.35
2024-03-07T12:31:56.584Z,132.52
2024-03-07T12:33:05.471Z,185.23
2024-03-07T12:34:10.471Z,123.85
2024-03-07T12:35:14.172Z,120.97
2024-03-07T12:36:19.155Z,149.30
2024-03-07T12:37:29.361Z,139.98
2024-03-07T12:38:37.452Z,165.75
2024-03-07T12:39:47.772Z,165.40
2024-03-07T12:41:08.734Z,128.70
2024-03-07T12:42:12.998Z,149.33
2024-03-07T12:43:20.004Z,167.85
2024-03-07T12:44:23.111Z,187.75
2024-03-07T12:45:29.770Z,163.10
2024-03-07T12:46:32.402Z,141.60
2024-03-07T12:47:38.930Z,207.57
2024-03-07T12:48:47.157Z,106.97
2024-03-07T12:49:52.711Z,119.03
2024-03-07T12:50:55.333Z,143.05
2024-03-07T12:52:00.709Z,125.72
2024-03-07T12:53:07.228Z,106.55
2024-03-07T12:54:13.370Z,118.70
2024-03-07T12:55:19.529Z,131.45
2024-03-07T12:56:24.664Z,125.63
2024-03-07T12:57:26.827Z,179.15
2024-03-07T12:58:32.228Z,166.57
2024-03-07T12:59:34.521Z,186.95
2024-03-07T13:00:39.710Z,141.95
2024-03-07T13:01:46.494Z,140.23
2024-03-07T13:02:51.531Z,168.35
2024-03-07T13:03:56.358Z,140.90
2024-03-07T13:05:02.256Z,172.82
2024-03-07T13:06:06.383Z,173.75
2024-03-07T13:07:11.631Z,154.52
2024-03-07T13:08:13.916Z,168.23
2024-03-07T13:09:28.097Z,138.55
2024-03-07T13:10:31.014Z,178.13
2024-03-07T13:11:36.442Z,184.50
2024-03-07T13:12:42.954Z,218.65
2024-03-07T13:13:48.451Z,170.95
2024-03-07T13:14:50.653Z,171.07
2024-03-07T13:15:56.539Z,208.63
2024-03-07T13:17:01.924Z,877.42
2024-03-07T13:18:06.448Z,957.42
2024-03-07T13:19:15.940Z,877.15
2024-03-07T13:20:23.277Z,864.85
2024-03-07T13:21:28.581Z,232.95
2024-03-07T13:22:33.262Z,207.85
2024-03-07T13:23:41.729Z,137.70
2024-03-07T13:24:45.833Z,123.45
2024-03-07T13:25:51.110Z,101.40
2024-03-07T13:26:53.722Z,122.78
2024-03-07T13:28:04.080Z,115.07
2024-03-07T13:29:06.339Z,121.70
2024-03-07T13:30:09.845Z,115.32
2024-03-07T13:31:18.526Z,122.47
2024-03-07T13:32:20.862Z,115.38
2024-03-07T13:33:26.634Z,171.45
2024-03-07T13:34:31.801Z,164.48
2024-03-07T13:35:37.463Z,139.90